Time;durP1;ratioP1;P1;durP2;ratioP2;P2;SDS_P1;SDS_P2;PMS_P1;PMS_P2;Temp;Humidity;BMP_temperature;BMP_pressure;BME280_temperature;BME280_humidity;BME280_pressure;Samples;Min_cycle;Max_cycle;Signal;HPM_P1;HPM_P2
2022/10/15 00:01:55;;;;;;;12.53;9.93;;;;;;;14.76;100.00;98478.91;5050579;28;20224;-81
2022/10/15 00:04:24;;;;;;;11.23;9.63;;;;;;;14.74;100.00;98475.56;5050490;28;20200;-82
2022/10/15 00:06:56;;;;;;;10.93;9.00;;;;;;;14.74;100.00;98485.38;5050834;28;20189;-82
2022/10/15 00:09:30;;;;;;;8.70;7.40;;;;;;;14.94;100.00;98480.88;5054619;28;20197;-82
2022/10/15 00:11:59;;;;;;;9.33;8.10;;;;;;;14.96;100.00;98481.56;5047655;28;20228;-82
2022/10/15 00:14:27;;;;;;;9.43;7.73;;;;;;;14.97;100.00;98485.94;5045126;28;20200;-82
2022/10/15 00:16:57;;;;;;;8.13;6.93;;;;;;;14.97;100.00;98480.59;5051111;28;20696;-82
2022/10/15 00:19:25;;;;;;;10.40;8.10;;;;;;;14.79;100.00;98472.47;5048437;28;20197;-83
2022/10/15 00:21:57;;;;;;;10.73;8.50;;;;;;;14.80;100.00;98472.34;5051669;28;20189;-83
2022/10/15 00:24:29;;;;;;;10.80;7.43;;;;;;;14.73;100.00;98473.03;5048926;28;20204;-82
2022/10/15 00:26:58;;;;;;;8.67;6.60;;;;;;;14.74;100.00;98472.03;5046974;28;20205;-82
2022/10/15 00:29:26;;;;;;;8.63;7.20;;;;;;;14.72;100.00;98471.34;5046265;28;20243;-82
2022/10/15 00:31:54;;;;;;;10.30;7.70;;;;;;;14.70;100.00;98470.66;5045710;28;20208;-82
2022/10/15 00:34:23;;;;;;;8.23;6.40;;;;;;;14.86;100.00;98468.25;5051487;28;20193;-82
2022/10/15 00:36:51;;;;;;;9.57;6.80;;;;;;;14.87;100.00;98472.63;5043799;28;20217;-82
2022/10/15 00:39:23;;;;;;;8.73;6.90;;;;;;;14.86;100.00;98484.22;5051974;28;20193;-82
2022/10/15 00:41:53;;;;;;;7.83;6.30;;;;;;;14.77;100.00;98474.44;5030923;28;20205;-83
2022/10/15 00:44:54;;;;;;;8.53;6.57;;;;;;;14.89;100.00;98473.31;5027792;28;20213;-82
2022/10/15 00:47:29;;;;;;;8.60;6.67;;;;;;;15.03;100.00;98469.34;5029329;28;20272;-83
2022/10/15 00:50:06;;;;;;;8.03;6.33;;;;;;;14.97;100.00;98453.94;5032280;28;20193;-82
2022/10/15 00:52:43;;;;;;;7.93;6.53;;;;;;;15.00;100.00;98458.97;5031980;28;20194;-82
2022/10/15 00:55:17;;;;;;;8.63;6.70;;;;;;;15.05;100.00;98451.38;5029896;28;20189;-82
2022/10/15 00:57:51;;;;;;;8.20;6.27;;;;;;;14.85;100.00;98462.06;4999905;28;20193;-82
2022/10/15 01:00:20;;;;;;;8.70;6.80;;;;;;;14.93;100.00;98461.34;5044132;28;20200;-82
2022/10/15 01:02:50;;;;;;;10.43;7.00;;;;;;;14.74;100.00;98456.88;5051017;28;20197;-82
2022/10/15 01:05:22;;;;;;;9.33;6.93;;;;;;;14.74;100.00;98459.56;5055169;28;20189;-82
2022/10/15 01:07:53;;;;;;;9.87;6.90;;;;;;;14.61;100.00;98456.34;5051185;28;20196;-82
2022/10/15 01:10:33;;;;;;;7.93;5.97;;;;;;;14.78;100.00;98454.81;5049082;28;20258;-83
2022/10/15 01:13:12;;;;;;;8.43;6.73;;;;;;;14.82;100.00;98450.84;5052493;28;20197;-82
2022/10/15 01:15:50;;;;;;;7.43;6.03;;;;;;;14.82;100.00;98454.34;5051845;28;20201;-82
2022/10/15 01:18:24;;;;;;;8.60;7.07;;;;;;;14.74;100.00;98448.06;5053395;28;20199;-82
2022/10/15 01:21:03;;;;;;;9.27;6.37;;;;;;;14.73;100.00;98447.22;5056151;28;20243;-82
2022/10/15 01:23:59;;;;;;;8.60;6.50;;;;;;;14.75;100.00;98442.56;5057287;28;20819;-82
2022/10/15 01:26:55;;;;;;;9.17;6.83;;;;;;;14.65;100.00;98441.75;5049032;28;20193;-82
2022/10/15 01:29:52;;;;;;;9.60;7.07;;;;;;;14.71;100.00;98441.19;5052695;28;20261;-82
2022/10/15 01:32:27;;;;;;;10.17;6.93;;;;;;;15.02;100.00;98436.50;5021656;28;20185;-82
2022/10/15 01:35:05;;;;;;;9.00;6.70;;;;;;;14.74;100.00;98434.72;5054226;28;20193;-82
2022/10/15 01:37:39;;;;;;;8.43;6.23;;;;;;;14.97;100.00;98438.78;5055470;28;20344;-82
2022/10/15 01:40:18;;;;;;;8.57;6.53;;;;;;;14.88;100.00;98424.47;5051422;28;20199;-82
2022/10/15 01:42:55;;;;;;;9.83;7.37;;;;;;;14.87;100.00;98424.63;5057117;28;20201;-82
2022/10/15 01:45:29;;;;;;;11.30;8.57;;;;;;;14.80;100.00;98426.16;5055803;28;20200;-82
2022/10/15 01:48:04;;;;;;;9.87;6.93;;;;;;;14.89;100.00;98439.47;5048036;28;20319;-83
2022/10/15 01:50:38;;;;;;;7.13;5.70;;;;;;;15.05;100.00;98432.69;5047710;28;20196;-82
2022/10/15 01:53:10;;;;;;;11.03;7.33;;;;;;;14.89;100.00;98431.47;5048859;28;20235;-82
2022/10/15 01:55:43;;;;;;;7.23;5.17;;;;;;;15.08;100.00;98425.25;5052908;28;20204;-82
2022/10/15 01:58:13;;;;;;;6.90;5.40;;;;;;;15.10;100.00;98417.13;5049722;28;20263;-82
2022/10/15 02:00:43;;;;;;;6.60;5.13;;;;;;;15.00;100.00;98421.63;5052157;28;20227;-82
2022/10/15 02:03:13;;;;;;;6.90;5.33;;;;;;;15.00;100.00;98422.47;5047953;28;20228;-82
2022/10/15 02:05:48;;;;;;;7.27;5.80;;;;;;;14.98;100.00;98413.78;5049519;28;20286;-82
2022/10/15 02:08:26;;;;;;;7.97;5.23;;;;;;;15.01;100.00;98410.81;5053259;28;20193;-82
2022/10/15 02:10:59;;;;;;;8.73;5.30;;;;;;;15.00;100.00;98406.47;5017330;28;20286;-82
2022/10/15 02:13:37;;;;;;;7.20;5.10;;;;;;;14.99;100.00;98415.47;4993065;28;20194;-82
2022/10/15 02:16:13;;;;;;;7.73;5.63;;;;;;;14.92;100.00;98408.19;4916307;29;20209;-82
2022/10/15 02:18:54;;;;;;;7.97;5.77;;;;;;;14.86;100.00;98409.56;4916704;29;20218;-82
2022/10/15 02:21:30;;;;;;;5.40;4.40;;;;;;;14.99;100.00;98409.28;4857199;29;20263;-82
2022/10/15 02:24:08;;;;;;;6.50;4.97;;;;;;;15.00;100.00;98401.13;4857798;29;20367;-83
2022/10/15 02:26:47;;;;;;;6.73;5.10;;;;;;;14.91;100.00;98409.16;4862261;29;20252;-82
2022/10/15 02:29:19;;;;;;;7.33;5.20;;;;;;;14.91;100.00;98407.34;4858234;29;20211;-82
2022/10/15 02:31:53;;;;;;;8.93;5.37;;;;;;;15.00;100.00;98413.63;4884899;29;20198;-82
2022/10/15 02:34:28;;;;;;;6.97;5.33;;;;;;;15.02;100.00;98420.50;4913723;29;20255;-82
2022/10/15 02:36:58;;;;;;;8.27;5.73;;;;;;;14.87;100.00;98420.13;4912915;29;20217;-82
2022/10/15 02:39:27;;;;;;;8.23;5.20;;;;;;;14.85;100.00;98419.41;4952021;28;20796;-82
2022/10/15 02:41:57;;;;;;;8.97;5.13;;;;;;;14.93;100.00;98421.34;5048623;28;20205;-82
2022/10/15 02:44:26;;;;;;;9.73;6.10;;;;;;;14.99;100.00;98414.63;5056235;28;20201;-83
2022/10/15 02:46:55;;;;;;;9.97;6.60;;;;;;;15.01;100.00;98415.31;5051667;28;20197;-82
2022/10/15 02:49:25;;;;;;;10.70;6.20;;;;;;;15.13;100.00;98412.31;5045621;28;20209;-81
2022/10/15 02:51:54;;;;;;;10.03;5.87;;;;;;;15.11;100.00;98397.47;4970666;28;20248;-81
2022/10/15 02:54:22;;;;;;;10.10;6.63;;;;;;;15.01;100.00;98401.97;4971348;28;20199;-81
2022/10/15 02:56:51;;;;;;;10.13;6.87;;;;;;;14.92;100.00;98394.84;4961421;28;20247;-81
2022/10/15 02:59:19;;;;;;;11.30;7.00;;;;;;;14.91;100.00;98388.66;4972133;28;20191;-82
2022/10/15 03:01:48;;;;;;;11.63;7.17;;;;;;;14.96;100.00;98393.56;4966372;28;20207;-81
2022/10/15 03:04:16;;;;;;;13.23;6.90;;;;;;;14.91;100.00;98391.34;4963854;28;20384;-81
2022/10/15 03:06:47;;;;;;;11.27;6.57;;;;;;;14.87;100.00;98392.63;4966445;28;20324;-81
2022/10/15 03:09:16;;;;;;;11.60;6.90;;;;;;;14.89;100.00;98401.31;4979967;28;20197;-82
2022/10/15 03:11:44;;;;;;;11.30;6.70;;;;;;;14.92;100.00;98394.84;5053192;28;20221;-82
2022/10/15 03:14:13;;;;;;;11.77;7.07;;;;;;;14.81;100.00;98390.53;5052194;28;20190;-82
2022/10/15 03:16:42;;;;;;;12.33;7.13;;;;;;;14.95;100.00;98399.88;5046143;28;20605;-81
2022/10/15 03:19:13;;;;;;;13.67;6.83;;;;;;;14.96;100.00;98409.56;5053735;28;20205;-83
2022/10/15 03:21:42;;;;;;;11.37;6.40;;;;;;;15.06;100.00;98411.25;5051418;28;20302;-82
2022/10/15 03:24:11;;;;;;;14.13;7.67;;;;;;;15.13;100.00;98409.66;5050292;28;20258;-82
2022/10/15 03:26:41;;;;;;;13.33;7.00;;;;;;;15.07;100.00;98422.75;5045859;28;20208;-81
2022/10/15 03:29:10;;;;;;;13.53;7.07;;;;;;;14.90;100.00;98413.66;4988801;28;20199;-82
2022/10/15 03:31:38;;;;;;;15.87;8.27;;;;;;;14.98;100.00;98418.28;4989335;28;20199;-82
2022/10/15 03:34:08;;;;;;;23.07;8.17;;;;;;;14.86;100.00;98421.13;4968687;28;20219;-81
2022/10/15 03:36:37;;;;;;;18.97;7.87;;;;;;;14.85;100.00;98414.06;4964785;28;20234;-81
2022/10/15 03:39:07;;;;;;;16.23;7.63;;;;;;;14.81;100.00;98420.69;4972419;28;20223;-81
2022/10/15 03:41:38;;;;;;;29.97;7.77;;;;;;;14.89;100.00;98422.66;4967950;28;20211;-81
2022/10/15 03:44:09;;;;;;;31.07;9.20;;;;;;;14.73;100.00;98422.38;4970571;28;20200;-81
2022/10/15 03:46:37;;;;;;;30.63;8.90;;;;;;;14.63;100.00;98427.72;4982269;28;20228;-81
2022/10/15 03:49:09;;;;;;;24.13;8.70;;;;;;;14.74;100.00;98418.72;5046039;28;20201;-81
2022/10/15 03:51:39;;;;;;;17.10;8.43;;;;;;;14.93;100.00;98426.69;5042484;28;20220;-81
2022/10/15 03:54:07;;;;;;;35.90;9.03;;;;;;;14.82;100.00;98432.19;5048905;28;20205;-81
2022/10/15 03:56:39;;;;;;;20.37;8.90;;;;;;;14.81;100.00;98433.19;5045454;28;20192;-81
2022/10/15 03:59:07;;;;;;;26.63;9.17;;;;;;;14.76;100.00;98432.75;5045997;28;20240;-81
2022/10/15 04:01:37;;;;;;;21.77;8.50;;;;;;;14.81;100.00;98438.50;5046078;28;20225;-82
2022/10/15 04:04:06;;;;;;;19.63;7.73;;;;;;;14.78;100.00;98433.47;5048506;28;20301;-81
2022/10/15 04:06:35;;;;;;;20.60;7.97;;;;;;;14.89;100.00;98434.16;5049374;28;20193;-81
2022/10/15 04:09:04;;;;;;;14.27;7.90;;;;;;;15.09;100.00;98436.78;5052537;28;20197;-82
2022/10/15 04:11:32;;;;;;;19.87;8.47;;;;;;;15.04;100.00;98439.00;5049070;28;20233;-81
2022/10/15 04:14:03;;;;;;;20.53;8.40;;;;;;;15.05;100.00;98441.53;5052913;28;20185;-82
2022/10/15 04:16:32;;;;;;;19.63;8.20;;;;;;;14.88;100.00;98437.81;5053098;28;20193;-81
2022/10/15 04:19:00;;;;;;;15.07;7.10;;;;;;;14.94;100.00;98432.88;5042350;28;20663;-82
2022/10/15 04:21:32;;;;;;;15.00;6.87;;;;;;;15.00;100.00;98425.16;5046862;28;20229;-82
2022/10/15 04:24:01;;;;;;;17.37;7.40;;;;;;;14.98;100.00;98429.78;5048055;28;20330;-82
2022/10/15 04:26:29;;;;;;;17.57;7.50;;;;;;;14.96;100.00;98425.56;5023334;28;20221;-81
2022/10/15 04:28:57;;;;;;;16.90;8.20;;;;;;;14.99;100.00;98431.47;5027011;28;20623;-82
2022/10/15 04:31:28;;;;;;;14.37;7.53;;;;;;;14.97;100.00;98428.09;5026809;28;20225;-82
2022/10/15 04:33:56;;;;;;;20.17;8.53;;;;;;;14.88;100.00;98432.47;5026896;28;20200;-81
2022/10/15 04:36:24;;;;;;;16.97;7.93;;;;;;;14.90;100.00;98421.66;5026955;28;20197;-82
2022/10/15 04:38:54;;;;;;;20.67;8.27;;;;;;;14.83;100.00;98431.19;5027391;28;20218;-81
2022/10/15 04:41:22;;;;;;;17.93;7.73;;;;;;;14.74;100.00;98426.72;5023845;28;20233;-82
2022/10/15 04:43:51;;;;;;;22.47;8.87;;;;;;;14.57;100.00;98445.13;5034258;28;20197;-81
2022/10/15 04:46:21;;;;;;;18.03;8.90;;;;;;;14.60;100.00;98442.19;5051855;28;20197;-82
2022/10/15 04:48:56;;;;;;;12.70;6.60;;;;;;;14.74;100.00;98456.06;5047876;28;20243;-82
2022/10/15 04:51:25;;;;;;;11.80;6.93;;;;;;;14.89;100.00;98462.63;5051148;28;20266;-81
2022/10/15 04:53:53;;;;;;;13.17;6.80;;;;;;;14.92;100.00;98472.16;4989174;28;20210;-82
2022/10/15 04:56:23;;;;;;;10.60;5.97;;;;;;;15.00;100.00;98458.97;4991702;28;20238;-82
2022/10/15 04:58:51;;;;;;;11.10;5.87;;;;;;;15.01;100.00;98455.31;4983787;28;20328;-81
2022/10/15 05:01:21;;;;;;;9.73;5.03;;;;;;;15.03;100.00;98450.69;4982233;28;20203;-81
2022/10/15 05:03:51;;;;;;;6.67;4.07;;;;;;;15.00;100.00;98454.47;4984978;28;20228;-81
2022/10/15 05:06:22;;;;;;;7.13;4.73;;;;;;;14.91;100.00;98452.66;4988788;28;20198;-82
2022/10/15 05:08:52;;;;;;;6.87;4.23;;;;;;;14.81;100.00;98449.19;4985356;28;20195;-82
2022/10/15 05:11:22;;;;;;;7.70;4.20;;;;;;;14.85;100.00;98454.06;4999156;28;20254;-81
2022/10/15 05:13:52;;;;;;;6.83;4.03;;;;;;;14.94;100.00;98457.72;5053893;28;20676;-82
2022/10/15 05:16:23;;;;;;;6.83;4.33;;;;;;;14.72;100.00;98456.19;5047197;28;20251;-81
2022/10/15 05:18:56;;;;;;;7.53;5.17;;;;;;;14.73;100.00;98454.38;5052227;28;20221;-81
2022/10/15 05:21:25;;;;;;;6.73;4.83;;;;;;;14.86;100.00;98454.91;5048678;28;20197;-82
2022/10/15 05:23:55;;;;;;;7.33;5.20;;;;;;;14.91;100.00;98452.66;5052724;28;20197;-82
2022/10/15 05:26:27;;;;;;;7.73;5.17;;;;;;;14.85;100.00;98446.06;5055827;28;20201;-82
2022/10/15 05:28:56;;;;;;;8.63;5.17;;;;;;;14.93;100.00;98440.03;5050962;28;20240;-81
2022/10/15 05:31:27;;;;;;;9.13;6.20;;;;;;;14.94;100.00;98440.88;5053848;28;20263;-82
2022/10/15 05:34:00;;;;;;;9.30;5.40;;;;;;;14.93;100.00;98445.34;5049921;28;20228;-82
2022/10/15 05:36:30;;;;;;;9.63;6.13;;;;;;;14.95;100.00;98450.53;5050218;28;20189;-82
2022/10/15 05:39:02;;;;;;;11.63;6.60;;;;;;;14.93;100.00;98452.53;5051749;28;20217;-81
2022/10/15 05:41:31;;;;;;;8.90;6.17;;;;;;;15.02;100.00;98449.84;5045906;28;20221;-81
2022/10/15 05:44:00;;;;;;;10.37;6.83;;;;;;;14.88;100.00;98450.28;5057590;28;20645;-81
2022/10/15 05:46:29;;;;;;;8.83;5.97;;;;;;;14.94;100.00;98447.03;5049261;28;20200;-82
2022/10/15 05:49:00;;;;;;;9.57;6.13;;;;;;;14.87;100.00;98453.94;5049616;28;20193;-81
2022/10/15 05:51:29;;;;;;;10.60;6.60;;;;;;;14.74;100.00;98442.72;5046351;28;20189;-81
2022/10/15 05:53:59;;;;;;;8.80;6.43;;;;;;;14.85;100.00;98455.88;5053205;28;20185;-82
2022/10/15 05:56:28;;;;;;;10.57;6.40;;;;;;;14.72;100.00;98453.53;5055425;28;20201;-82
2022/10/15 05:58:57;;;;;;;11.83;6.43;;;;;;;14.50;100.00;98469.81;5049728;28;20249;-82
2022/10/15 06:01:26;;;;;;;10.10;6.50;;;;;;;14.41;100.00;98482.13;5049097;28;20221;-81
2022/10/15 06:03:54;;;;;;;11.57;7.10;;;;;;;14.36;100.00;98489.66;5050134;28;20231;-81
2022/10/15 06:06:26;;;;;;;12.27;6.60;;;;;;;14.57;100.00;98487.78;5059956;28;20197;-82
2022/10/15 06:08:55;;;;;;;10.57;7.23;;;;;;;14.59;100.00;98504.47;5060973;28;20201;-82
2022/10/15 06:11:24;;;;;;;9.97;6.73;;;;;;;14.51;100.00;98495.47;5059172;28;20228;-81
2022/10/15 06:13:53;;;;;;;10.90;6.30;;;;;;;14.42;100.00;98494.47;5057622;28;20193;-81
2022/10/15 06:16:21;;;;;;;8.97;6.47;;;;;;;14.35;100.00;98482.66;5054983;28;20216;-81
2022/10/15 06:18:52;;;;;;;8.47;6.80;;;;;;;14.37;100.00;98496.69;5050168;28;20308;-82
2022/10/15 06:21:20;;;;;;;8.90;6.20;;;;;;;14.33;100.00;98508.59;5017401;28;20259;-82
2022/10/15 06:23:51;;;;;;;9.20;6.63;;;;;;;14.35;100.00;98511.97;5048335;28;20252;-81
2022/10/15 06:26:19;;;;;;;8.33;6.07;;;;;;;14.32;100.00;98515.75;5050966;28;20201;-81
2022/10/15 06:28:47;;;;;;;8.17;6.33;;;;;;;14.31;100.00;98518.56;5052772;28;20204;-82
2022/10/15 06:31:16;;;;;;;9.03;7.00;;;;;;;14.43;100.00;98525.44;5036787;28;20200;-82
2022/10/15 06:33:46;;;;;;;9.03;5.70;;;;;;;14.47;100.00;98534.88;5048470;28;20250;-82
2022/10/15 06:36:14;;;;;;;10.10;6.20;;;;;;;14.39;100.00;98542.69;5053375;28;20196;-82
2022/10/15 06:38:45;;;;;;;8.30;6.30;;;;;;;14.36;100.00;98552.78;5054701;28;20198;-82
2022/10/15 06:41:15;;;;;;;8.23;6.30;;;;;;;14.48;100.00;98549.06;5050802;28;20212;-81
2022/10/15 06:43:45;;;;;;;8.20;5.80;;;;;;;14.45;100.00;98549.31;5051087;28;20211;-81
2022/10/15 06:46:16;;;;;;;8.73;6.50;;;;;;;14.50;100.00;98553.28;5046073;28;20204;-82
2022/10/15 06:48:44;;;;;;;8.33;5.70;;;;;;;14.58;100.00;98564.09;5051499;28;20193;-82
2022/10/15 06:51:13;;;;;;;9.63;6.10;;;;;;;14.47;100.00;98561.50;5050834;28;20228;-82
2022/10/15 06:53:42;;;;;;;10.00;5.93;;;;;;;14.65;100.00;98567.03;5053750;28;20185;-82
2022/10/15 06:56:10;;;;;;;7.80;5.50;;;;;;;14.67;100.00;98567.75;5053515;28;20185;-81
2022/10/15 06:58:44;;;;;;;6.57;5.53;;;;;;;14.54;100.00;98569.81;5055774;28;20193;-82
2022/10/15 07:01:12;;;;;;;11.47;8.60;;;;;;;14.82;100.00;98574.34;5051667;28;20204;-82
2022/10/15 07:03:40;;;;;;;8.63;6.57;;;;;;;14.72;100.00;98564.66;5050948;28;20201;-81
2022/10/15 07:06:09;;;;;;;12.57;10.00;;;;;;;14.98;100.00;98557.78;5051244;28;20196;-81
2022/10/15 07:08:38;;;;;;;7.47;5.30;;;;;;;14.77;100.00;98560.59;5060894;28;20406;-82
2022/10/15 07:11:08;;;;;;;13.10;5.70;;;;;;;14.85;100.00;98563.38;5054241;28;20224;-81
2022/10/15 07:13:37;;;;;;;7.53;6.30;;;;;;;14.92;100.00;98571.69;5050781;28;20208;-81
2022/10/15 07:16:10;;;;;;;7.57;5.70;;;;;;;15.00;100.00;98568.31;5050419;28;20196;-82
2022/10/15 07:18:39;;;;;;;7.57;5.83;;;;;;;15.02;100.00;98579.69;5053031;28;20192;-82
2022/10/15 07:21:08;;;;;;;9.77;6.07;;;;;;;14.98;100.00;98573.78;5039913;28;20213;-81
2022/10/15 07:23:38;;;;;;;9.37;6.07;;;;;;;14.94;100.00;98582.19;5057919;28;20652;-81
2022/10/15 07:26:06;;;;;;;9.10;6.50;;;;;;;15.14;100.00;98565.22;5055973;28;20213;-80
2022/10/15 07:28:35;;;;;;;6.83;5.13;;;;;;;14.85;100.00;98566.06;5050018;28;20345;-81
2022/10/15 07:31:08;;;;;;;7.43;4.97;;;;;;;15.14;100.00;98567.88;5047009;28;20284;-81
2022/10/15 07:33:38;;;;;;;7.07;5.50;;;;;;;15.12;100.00;98573.34;5049059;28;20197;-81
2022/10/15 07:36:09;;;;;;;10.60;5.33;;;;;;;15.07;100.00;98572.94;5049894;28;20208;-82
2022/10/15 07:38:38;;;;;;;16.03;10.07;;;;;;;15.03;100.00;98563.53;5052498;28;20219;-81
2022/10/15 07:41:09;;;;;;;6.70;4.37;;;;;;;14.88;100.00;98568.47;5046416;28;20745;-81
2022/10/15 07:43:38;;;;;;;7.33;4.37;;;;;;;14.89;100.00;98574.63;5051934;28;20200;-80
2022/10/15 07:46:08;;;;;;;6.03;4.57;;;;;;;15.04;100.00;98573.22;5051025;28;20197;-81
2022/10/15 07:48:37;;;;;;;5.57;4.33;;;;;;;14.91;100.00;98575.31;5046961;28;20196;-82
2022/10/15 07:51:07;;;;;;;5.87;4.90;;;;;;;14.93;100.00;98572.53;5048842;28;20321;-81
2022/10/15 07:53:36;;;;;;;8.03;6.73;;;;;;;14.88;100.00;98578.28;5050796;28;20197;-82
2022/10/15 07:56:06;;;;;;;8.27;6.03;;;;;;;14.81;100.00;98577.16;5047207;28;20201;-82
2022/10/15 07:58:36;;;;;;;10.63;5.50;;;;;;;14.83;100.00;98584.03;5050677;28;20189;-81
2022/10/15 08:01:06;;;;;;;12.10;8.43;;;;;;;14.88;100.00;98592.47;5032636;28;20223;-82
2022/10/15 08:03:37;;;;;;;11.27;9.27;;;;;;;14.77;100.00;98591.75;5045185;28;20189;-81
2022/10/15 08:06:07;;;;;;;9.43;7.00;;;;;;;14.82;100.00;98598.34;5050837;28;20197;-80
2022/10/15 08:08:37;;;;;;;10.73;7.57;;;;;;;14.67;100.00;98605.06;5054358;28;20651;-81
2022/10/15 08:11:07;;;;;;;8.90;6.73;;;;;;;14.76;100.00;98609.53;5049496;28;20229;-81
2022/10/15 08:13:35;;;;;;;15.57;10.90;;;;;;;14.77;100.00;98602.41;5052920;28;20307;-81
2022/10/15 08:16:04;;;;;;;10.23;6.67;;;;;;;14.89;100.00;98601.31;5050413;28;20200;-80
2022/10/15 08:18:33;;;;;;;18.47;14.57;;;;;;;14.78;100.00;98594.28;5045260;28;20208;-81
2022/10/15 08:21:05;;;;;;;12.70;7.83;;;;;;;14.77;100.00;98594.41;4988627;28;20414;-81
2022/10/15 08:23:34;;;;;;;21.77;18.80;;;;;;;14.78;100.00;98599.59;4984730;28;20226;-81
2022/10/15 08:26:02;;;;;;;15.17;13.53;;;;;;;14.74;100.00;98597.34;4985822;28;20201;-81
2022/10/15 08:28:33;;;;;;;9.87;7.13;;;;;;;14.83;100.00;98599.19;4991264;28;20229;-81
2022/10/15 08:31:03;;;;;;;11.50;7.73;;;;;;;14.85;100.00;98594.53;4991969;28;20195;-82
2022/10/15 08:33:34;;;;;;;11.07;6.70;;;;;;;14.85;100.00;98594.53;4987197;28;20278;-81
2022/10/15 08:36:06;;;;;;;9.50;6.77;;;;;;;14.83;100.00;98600.03;4987342;28;20199;-81
2022/10/15 08:38:36;;;;;;;9.03;5.90;;;;;;;14.88;100.00;98607.63;4933391;29;20280;-81
2022/10/15 08:41:18;;;;;;;8.87;6.13;;;;;;;14.93;100.00;98617.84;4928786;29;20688;-81
2022/10/15 08:43:47;;;;;;;13.50;8.17;;;;;;;14.87;100.00;98616.59;4902932;29;20192;-81
2022/10/15 08:46:22;;;;;;;8.10;6.03;;;;;;;15.11;100.00;98622.34;4956477;28;20199;-81
2022/10/15 08:48:58;;;;;;;11.10;5.67;;;;;;;15.10;100.00;98625.16;4969607;28;20188;-81
2022/10/15 08:51:34;;;;;;;8.63;5.00;;;;;;;15.11;100.00;98622.34;4968636;28;20200;-81
2022/10/15 08:54:06;;;;;;;7.90;5.20;;;;;;;15.33;100.00;98620.38;4972418;28;20192;-81
2022/10/15 08:56:39;;;;;;;8.10;4.70;;;;;;;15.58;100.00;98618.97;4982534;28;20218;-81
2022/10/15 08:59:18;;;;;;;7.37;5.20;;;;;;;15.54;100.00;98617.53;5005619;28;20294;-82
2022/10/15 09:01:52;;;;;;;8.47;5.10;;;;;;;15.74;100.00;98613.91;5011547;28;20218;-81
2022/10/15 09:04:31;;;;;;;7.87;5.07;;;;;;;15.78;100.00;98609.13;5049727;28;20200;-81
2022/10/15 09:07:09;;;;;;;6.13;4.40;;;;;;;15.92;100.00;98608.63;5057856;28;20193;-82
2022/10/15 09:09:45;;;;;;;7.07;5.17;;;;;;;15.69;100.00;98613.50;5055298;28;20219;-82
2022/10/15 09:12:33;;;;;;;6.37;4.27;;;;;;;15.90;100.00;98607.94;5053770;28;20220;-82
2022/10/15 09:15:05;;;;;;;7.30;4.40;;;;;;;16.13;100.00;98603.94;5055803;28;20276;-82
2022/10/15 09:17:36;;;;;;;6.70;4.30;;;;;;;16.28;100.00;98607.81;5009971;28;20202;-82
2022/10/15 09:20:07;;;;;;;4.17;3.57;;;;;;;16.39;100.00;98598.75;5008505;28;20204;-82
2022/10/15 09:22:40;;;;;;;3.87;3.13;;;;;;;16.50;100.00;98584.31;4913894;29;20201;-81
2022/10/15 09:25:16;;;;;;;3.90;3.27;;;;;;;16.59;100.00;98570.91;4913643;29;20254;-81
2022/10/15 09:27:47;;;;;;;3.07;2.50;;;;;;;16.52;100.00;98569.84;4915963;29;20201;-81
2022/10/15 09:30:38;;;;;;;2.93;2.40;;;;;;;16.58;100.00;98557.69;4909334;29;20198;-81
2022/10/15 09:33:13;;;;;;;3.63;2.70;;;;;;;16.29;100.00;98557.84;4914786;29;20209;-81
2022/10/15 09:35:47;;;;;;;3.13;2.37;;;;;;;16.54;100.00;98559.00;4910872;29;20256;-82
2022/10/15 09:38:33;;;;;;;2.97;2.60;;;;;;;16.27;100.00;98555.34;4911141;29;20202;-80
2022/10/15 09:41:15;;;;;;;3.63;2.87;;;;;;;16.24;100.00;98554.81;4921367;29;20285;-81
2022/10/15 09:43:47;;;;;;;3.90;3.20;;;;;;;16.31;100.00;98563.94;4987060;28;20249;-81
2022/10/15 09:46:18;;;;;;;4.60;3.07;;;;;;;16.25;100.00;98559.16;4993651;28;20195;-81
2022/10/15 09:48:57;;;;;;;5.13;3.10;;;;;;;16.66;100.00;98565.81;5055369;28;20265;-81
2022/10/15 09:51:31;;;;;;;4.37;3.97;;;;;;;16.64;100.00;98550.91;5048211;28;20275;-81
2022/10/15 09:54:14;;;;;;;4.73;3.07;;;;;;;16.66;100.00;98554.25;5047446;28;20196;-80
2022/10/15 09:56:51;;;;;;;2.70;2.30;;;;;;;16.56;100.00;98551.66;5055865;28;20205;-81
2022/10/15 09:59:21;;;;;;;5.37;3.00;;;;;;;16.43;100.00;98557.38;5049824;28;20205;-81
2022/10/15 10:01:58;;;;;;;3.23;2.60;;;;;;;16.69;100.00;98551.31;5053407;28;20217;-81
2022/10/15 10:04:31;;;;;;;2.17;1.90;;;;;;;16.70;100.00;98553.84;5054225;28;20224;-81
2022/10/15 10:07:06;;;;;;;3.43;2.13;;;;;;;16.66;100.00;98546.25;5053439;28;20228;-81
2022/10/15 10:09:39;;;;;;;2.60;2.17;;;;;;;16.71;100.00;98552.03;5046803;28;20227;-81
2022/10/15 10:12:18;;;;;;;3.23;2.63;;;;;;;16.90;100.00;98549.19;5045884;28;20232;-81
2022/10/15 10:14:55;;;;;;;5.40;4.43;;;;;;;16.91;100.00;98547.38;5050739;28;20185;-81
2022/10/15 10:17:25;;;;;;;6.87;5.13;;;;;;;16.85;100.00;98540.78;5046893;28;20193;-81
2022/10/15 10:20:14;;;;;;;6.30;5.53;;;;;;;16.73;100.00;98550.03;5047295;28;20189;-81
2022/10/15 10:22:45;;;;;;;5.30;4.80;;;;;;;16.57;100.00;98558.69;5017946;28;20252;-81
2022/10/15 10:25:37;;;;;;;5.80;3.83;;;;;;;16.65;100.00;98555.25;5050889;28;20235;-80
2022/10/15 10:28:16;;;;;;;4.90;3.80;;;;;;;16.75;100.00;98556.06;5050484;28;20189;-80
2022/10/15 10:31:02;;;;;;;5.87;4.17;;;;;;;16.76;100.00;98555.06;5045212;28;20212;-81
2022/10/15 10:33:35;;;;;;;5.20;4.10;;;;;;;16.73;100.00;98553.53;5049741;28;20193;-80
2022/10/15 10:36:06;;;;;;;5.00;4.23;;;;;;;16.69;100.00;98544.13;5000729;28;20243;-81
2022/10/15 10:38:37;;;;;;;5.73;4.37;;;;;;;16.92;100.00;98549.88;5052458;28;20205;-81
2022/10/15 10:41:11;;;;;;;5.50;4.60;;;;;;;16.95;100.00;98552.25;5047988;28;20223;-80
2022/10/15 10:43:52;;;;;;;6.30;5.00;;;;;;;16.96;100.00;98547.72;5050630;28;20193;-81
2022/10/15 10:46:23;;;;;;;6.50;5.90;;;;;;;16.90;100.00;98541.19;5054409;28;20201;-81
2022/10/15 10:48:53;;;;;;;6.30;5.07;;;;;;;16.93;100.00;98551.56;5051436;28;20201;-81
2022/10/15 10:51:30;;;;;;;6.20;5.07;;;;;;;16.99;100.00;98542.09;5049448;28;20247;-81
2022/10/15 10:54:02;;;;;;;5.87;4.70;;;;;;;17.08;100.00;98541.13;5019614;28;20205;-81
2022/10/15 10:56:36;;;;;;;5.10;4.17;;;;;;;17.30;100.00;98529.97;5053401;28;20201;-81
2022/10/15 10:59:14;;;;;;;5.13;4.63;;;;;;;17.33;100.00;98529.63;5052303;28;20201;-81
2022/10/15 11:01:43;;;;;;;6.40;4.40;;;;;;;17.43;100.00;98516.16;5056306;28;20212;-81
2022/10/15 11:04:13;;;;;;;5.50;4.93;;;;;;;17.48;100.00;98513.84;5053749;28;20193;-81
2022/10/15 11:07:00;;;;;;;5.63;4.70;;;;;;;17.55;100.00;98516.72;5051185;28;20193;-81
2022/10/15 11:09:53;;;;;;;9.20;5.07;;;;;;;17.55;100.00;98514.03;5017069;28;20279;-81
2022/10/15 11:12:53;;;;;;;6.53;3.97;;;;;;;17.55;100.00;98509.53;5058624;28;20695;-80
2022/10/15 11:15:33;;;;;;;4.83;3.77;;;;;;;17.69;100.00;98517.03;5062858;28;20204;-80
2022/10/15 11:18:22;;;;;;;6.40;4.13;;;;;;;17.86;100.00;98499.19;5049713;28;20644;-81
2022/10/15 11:20:58;;;;;;;5.97;3.80;;;;;;;18.03;100.00;98500.09;5051554;28;20235;-81
2022/10/15 11:23:46;;;;;;;5.77;3.37;;;;;;;17.96;100.00;98493.72;5069926;28;20309;-80
2022/10/15 11:26:39;;;;;;;4.63;3.80;;;;;;;18.41;100.00;98501.38;5066189;28;20659;-81
2022/10/15 11:29:36;;;;;;;5.63;3.53;;;;;;;18.22;100.00;98489.09;5073469;28;20193;-81
2022/10/15 11:32:19;;;;;;;5.33;3.23;;;;;;;17.83;100.00;98482.59;5032073;28;20192;-81
2022/10/15 11:35:11;;;;;;;4.30;3.00;;;;;;;17.98;100.00;98476.47;4990440;28;20220;-81
2022/10/15 11:38:12;;;;;;;4.93;2.87;;;;;;;17.78;100.00;98476.88;5011398;28;20201;-81
2022/10/15 11:40:50;;;;;;;3.60;2.50;;;;;;;17.67;100.00;98477.97;4953763;28;20296;-81
2022/10/15 11:43:42;;;;;;;2.50;2.30;;;;;;;17.82;100.00;98471.03;4952135;28;20240;-81
2022/10/15 11:46:20;;;;;;;4.03;2.20;;;;;;;17.89;100.00;98477.44;4951282;28;20659;-80
2022/10/15 11:49:01;;;;;;;4.20;2.20;;;;;;;17.82;100.00;98467.50;4951199;28;20192;-81